createdAt,value
2022-12-31T00:00:22.653Z,94735.22
2022-12-31T00:02:49.549Z,94716.03
2022-12-31T00:05:17.803Z,94727.06
2022-12-31T00:07:44.833Z,94748.41
2022-12-31T00:10:11.715Z,94750.84
2022-12-31T00:12:38.614Z,94775.44
2022-12-31T00:15:05.958Z,94737.78
2022-12-31T00:17:32.674Z,94765.06
2022-12-31T00:19:59.727Z,94746.44
2022-12-31T00:22:26.548Z,94769.56
2022-12-31T00:24:53.531Z,94782.94
2022-12-31T00:27:22.358Z,94777.78
2022-12-31T00:29:49.083Z,94757.19
2022-12-31T00:32:16.512Z,94745.91
2022-12-31T00:34:43.235Z,94754.97
2022-12-31T00:37:10.125Z,94751.09
2022-12-31T00:39:37.299Z,94787.38
2022-12-31T00:42:04.116Z,94740.03
2022-12-31T00:44:31.151Z,94765.88
2022-12-31T00:46:57.864Z,94766.16
2022-12-31T00:49:24.696Z,94767.28
2022-12-31T00:51:52.256Z,94774.47
2022-12-31T00:54:19.026Z,94773.06
2022-12-31T00:56:46.117Z,94784.97
2022-12-31T00:59:12.967Z,94780.16
2022-12-31T01:01:40.834Z,94770.19
2022-12-31T01:04:13.818Z,94777.66
2022-12-31T01:06:41.616Z,94794.88
2022-12-31T01:09:09.604Z,94788.56
2022-12-31T01:11:36.516Z,94794.94
2022-12-31T01:14:15.744Z,94820.75
2022-12-31T01:16:51.404Z,94755.13
2022-12-31T01:19:24.320Z,94788.94
2022-12-31T01:21:52.556Z,94805.22
2022-12-31T01:24:20.523Z,94813.13
2022-12-31T01:26:49.263Z,94791.59
2022-12-31T01:29:17.050Z,94777.91
2022-12-31T01:31:44.015Z,94806.50
2022-12-31T01:34:10.818Z,94835.69
2022-12-31T01:36:39.088Z,94852.16
2022-12-31T01:39:07.736Z,94866.94
2022-12-31T01:41:40.225Z,94835.69
2022-12-31T01:44:12.693Z,94859.00
2022-12-31T01:46:45.385Z,94875.44
2022-12-31T01:49:36.837Z,94842.69
2022-12-31T01:52:08.973Z,94867.97
2022-12-31T01:54:43.043Z,94868.56
2022-12-31T01:57:11.316Z,94861.22
2022-12-31T01:59:38.374Z,94862.25
2022-12-31T02:02:06.106Z,94913.31
2022-12-31T02:04:33.179Z,94903.03
2022-12-31T02:07:07.093Z,94902.25
2022-12-31T02:09:38.243Z,94898.53
2022-12-31T02:12:06.330Z,94868.38
2022-12-31T02:14:39.803Z,94851.38
2022-12-31T02:17:22.615Z,94894.56
2022-12-31T02:20:19.409Z,94918.41
2022-12-31T02:23:17.020Z,94903.22
2022-12-31T02:25:50.097Z,94892.75
2022-12-31T02:28:38.660Z,94897.69
2022-12-31T02:31:17.164Z,94916.38
2022-12-31T02:33:52.790Z,94923.63
2022-12-31T02:36:24.722Z,94887.41
2022-12-31T02:38:52.967Z,94889.03
2022-12-31T02:41:39.416Z,94899.94
2022-12-31T02:44:39.606Z,94895.16
2022-12-31T02:47:09.135Z,94869.25
2022-12-31T02:50:13.350Z,94893.44
2022-12-31T02:53:01.972Z,94897.63
2022-12-31T02:55:47.243Z,94922.56
2022-12-31T02:58:20.795Z,94869.88
2022-12-31T03:01:15.041Z,94889.91
2022-12-31T03:03:43.225Z,94917.78
2022-12-31T03:06:11.568Z,94929.84
2022-12-31T03:09:01.275Z,94897.78
2022-12-31T03:11:57.612Z,94940.56
2022-12-31T03:14:24.293Z,94946.28
2022-12-31T03:16:51.745Z,94942.88
2022-12-31T03:19:37.208Z,94942.41
2022-12-31T03:22:22.510Z,94937.78
2022-12-31T03:25:09.169Z,94949.75
2022-12-31T03:27:35.923Z,94944.47
2022-12-31T03:30:03.209Z,94942.34
2022-12-31T03:32:30.456Z,94952.19
2022-12-31T03:34:58.134Z,94972.59
2022-12-31T03:37:24.846Z,94961.38
2022-12-31T03:39:51.631Z,94952.97
2022-12-31T03:42:18.520Z,94950.59
2022-12-31T03:44:45.222Z,94970.31
2022-12-31T03:47:11.991Z,94956.75
2022-12-31T03:49:39.076Z,94962.44
2022-12-31T03:52:06.533Z,94985.47
2022-12-31T03:54:33.723Z,94975.38
2022-12-31T03:57:00.576Z,94962.97
2022-12-31T03:59:27.437Z,94944.75
2022-12-31T04:01:54.314Z,94959.66
2022-12-31T04:04:21.182Z,94964.13
2022-12-31T04:06:48.260Z,94977.47
2022-12-31T04:09:15.053Z,94967.31
2022-12-31T04:11:41.736Z,94949.53
2022-12-31T04:14:09.185Z,94963.44
2022-12-31T04:16:35.944Z,94958.41
2022-12-31T04:19:03.850Z,94936.41
2022-12-31T04:21:34.964Z,94947.84
2022-12-31T04:24:02.985Z,94965.66
2022-12-31T04:26:29.869Z,94944.53
2022-12-31T04:28:56.721Z,94981.72
2022-12-31T04:31:24.021Z,94964.84
2022-12-31T04:33:50.758Z,95015.75
2022-12-31T04:36:18.561Z,94992.81
2022-12-31T04:38:45.253Z,94997.38
2022-12-31T04:41:18.020Z,95005.44
2022-12-31T04:43:48.011Z,94995.06
2022-12-31T04:46:15.577Z,95002.44
2022-12-31T04:48:42.560Z,95002.50
2022-12-31T04:51:09.609Z,95003.22
2022-12-31T04:53:36.556Z,95009.44
2022-12-31T04:56:03.955Z,95013.69
2022-12-31T04:58:30.606Z,95006.91
2022-12-31T05:00:57.733Z,95007.50
2022-12-31T05:03:26.229Z,95019.50
2022-12-31T05:05:54.623Z,95016.03
2022-12-31T05:08:21.357Z,95017.88
2022-12-31T05:10:49.682Z,95000.41
2022-12-31T05:13:17.074Z,94998.56
2022-12-31T05:15:45.832Z,95008.34
2022-12-31T05:18:12.541Z,94997.31
2022-12-31T05:20:39.931Z,95005.19
2022-12-31T05:23:06.642Z,95010.06
2022-12-31T05:25:34.067Z,94990.47
2022-12-31T05:28:01.297Z,95001.50
2022-12-31T05:30:28.131Z,95006.78
2022-12-31T05:32:55.107Z,95009.50
2022-12-31T05:35:22.377Z,94989.13
2022-12-31T05:37:49.088Z,95003.00
2022-12-31T05:40:15.866Z,95007.16
2022-12-31T05:42:42.609Z,95015.97
2022-12-31T05:45:13.479Z,95014.84
2022-12-31T05:47:41.097Z,95022.22
2022-12-31T05:50:15.388Z,95014.28
2022-12-31T05:52:47.425Z,95001.56
2022-12-31T05:55:14.657Z,94961.25
2022-12-31T05:57:41.888Z,95013.44
2022-12-31T06:00:11.027Z,94968.63
2022-12-31T06:02:41.205Z,95006.06
2022-12-31T06:05:09.025Z,95013.31
2022-12-31T06:07:35.825Z,95011.50
2022-12-31T06:10:05.447Z,95016.41
2022-12-31T06:12:32.887Z,95012.59
2022-12-31T06:14:59.752Z,95011.47
2022-12-31T06:17:26.526Z,94998.16
2022-12-31T06:19:53.238Z,94959.69
2022-12-31T06:22:20.000Z,94972.41
2022-12-31T06:24:46.810Z,94981.66
2022-12-31T06:27:13.567Z,94974.19
2022-12-31T06:29:41.047Z,95011.06
2022-12-31T06:32:07.919Z,95028.50
2022-12-31T06:34:34.675Z,95005.44
2022-12-31T06:37:01.384Z,95033.50
2022-12-31T06:39:28.206Z,95020.41
2022-12-31T06:41:55.959Z,95001.19
2022-12-31T06:44:22.871Z,95032.47
2022-12-31T06:46:50.750Z,95045.56
2022-12-31T06:49:18.329Z,95040.47
2022-12-31T06:51:46.245Z,95060.97
2022-12-31T06:54:13.762Z,95038.97
2022-12-31T06:56:41.896Z,95057.19
2022-12-31T06:59:23.105Z,95032.69
2022-12-31T07:02:04.720Z,95044.44
2022-12-31T07:04:37.554Z,95022.19
2022-12-31T07:07:12.830Z,94996.41
2022-12-31T07:09:54.987Z,95057.28
2022-12-31T07:12:40.994Z,95064.91
2022-12-31T07:15:11.172Z,95043.09
2022-12-31T07:17:52.486Z,95066.72
2022-12-31T07:20:20.685Z,95058.28
2022-12-31T07:22:48.499Z,95080.63
2022-12-31T07:25:17.119Z,95052.31
2022-12-31T07:28:00.515Z,95097.16
2022-12-31T07:30:44.151Z,95080.94
2022-12-31T07:33:32.274Z,95052.41
2022-12-31T07:36:40.363Z,95040.44
2022-12-31T07:39:11.221Z,95104.69
2022-12-31T07:42:01.994Z,95097.94
2022-12-31T07:44:40.895Z,95099.59
2022-12-31T07:47:22.795Z,95100.97
2022-12-31T07:49:50.360Z,95116.09
2022-12-31T07:52:17.567Z,95104.16
2022-12-31T07:54:44.484Z,95110.59
2022-12-31T07:57:17.131Z,95120.81
2022-12-31T07:59:58.687Z,95156.78
2022-12-31T08:02:59.576Z,95133.22
2022-12-31T08:06:12.176Z,95133.72
2022-12-31T08:08:53.638Z,95156.22
2022-12-31T08:11:26.556Z,95133.41
2022-12-31T08:13:56.556Z,95153.34
2022-12-31T08:16:23.775Z,95150.28
2022-12-31T08:18:50.871Z,95168.56
2022-12-31T08:21:35.569Z,95152.97
2022-12-31T08:24:10.548Z,95146.94
2022-12-31T08:27:05.186Z,95158.34
2022-12-31T08:29:43.926Z,95118.44
2022-12-31T08:32:16.974Z,95144.50
2022-12-31T08:34:56.351Z,95135.47
2022-12-31T08:37:31.752Z,95127.31
2022-12-31T08:40:27.211Z,95116.19
2022-12-31T08:43:19.166Z,95147.31
2022-12-31T08:45:49.259Z,95182.56
2022-12-31T08:48:39.804Z,95144.28
2022-12-31T08:51:14.303Z,95133.59
2022-12-31T08:53:42.063Z,95165.56
2022-12-31T08:56:20.656Z,95120.66
2022-12-31T08:59:31.064Z,95132.72
2022-12-31T09:02:11.010Z,95127.97
2022-12-31T09:04:40.905Z,95155.66
2022-12-31T09:07:09.594Z,95148.94
2022-12-31T09:09:54.537Z,95212.72
2022-12-31T09:12:33.845Z,95219.41
2022-12-31T09:15:13.213Z,95226.25
2022-12-31T09:17:44.630Z,95238.94
2022-12-31T09:20:24.160Z,95185.38
2022-12-31T09:22:52.348Z,95227.50
2022-12-31T09:25:22.168Z,95203.53
2022-12-31T09:27:49.421Z,95182.13
2022-12-31T09:30:17.789Z,95187.22
2022-12-31T09:33:01.698Z,95156.03
2022-12-31T09:35:37.485Z,95177.66
2022-12-31T09:38:45.524Z,95132.63
2022-12-31T09:41:39.622Z,95165.69
2022-12-31T09:44:21.841Z,95150.59
2022-12-31T09:47:27.467Z,95148.31
2022-12-31T09:50:20.877Z,95123.03
2022-12-31T09:53:25.224Z,95231.63
2022-12-31T09:56:10.427Z,95252.28
2022-12-31T09:59:02.992Z,95246.00
2022-12-31T10:01:56.622Z,95211.47
2022-12-31T10:04:45.613Z,95223.41
2022-12-31T10:07:39.631Z,95266.91
2022-12-31T10:10:13.514Z,95258.16
2022-12-31T10:13:01.877Z,95235.84
2022-12-31T10:15:45.463Z,95228.03
2022-12-31T10:18:31.598Z,95243.72
2022-12-31T10:21:20.075Z,95272.78
2022-12-31T10:24:30.909Z,95263.22
2022-12-31T10:27:32.011Z,95223.31
2022-12-31T10:30:08.731Z,95231.25
2022-12-31T10:32:44.797Z,95224.22
2022-12-31T10:35:23.700Z,95245.75
2022-12-31T10:38:18.283Z,95258.50
2022-12-31T10:41:15.545Z,95251.03
2022-12-31T10:44:17.524Z,95214.31
2022-12-31T10:47:18.425Z,95213.50
2022-12-31T10:50:13.093Z,95215.78
2022-12-31T10:52:58.349Z,95218.94
2022-12-31T10:55:43.839Z,95182.81
2022-12-31T10:58:52.746Z,95188.06
2022-12-31T11:01:34.870Z,95203.50
2022-12-31T11:04:14.169Z,95228.34
2022-12-31T11:07:02.491Z,95241.66
2022-12-31T11:10:07.809Z,95216.34
2022-12-31T11:13:01.735Z,95226.75
2022-12-31T11:15:50.335Z,95213.22
2022-12-31T11:18:20.689Z,95213.81
2022-12-31T11:21:09.020Z,95206.06
2022-12-31T11:23:46.701Z,95204.31
2022-12-31T11:26:22.652Z,95208.50
2022-12-31T11:29:13.639Z,95187.28
2022-12-31T11:32:01.513Z,95190.69
2022-12-31T11:34:37.299Z,95174.41
2022-12-31T11:37:22.509Z,95172.75
2022-12-31T11:39:52.266Z,95194.31
2022-12-31T11:42:41.507Z,95163.47
2022-12-31T11:45:21.975Z,95147.34
2022-12-31T11:48:29.148Z,95155.00
2022-12-31T11:50:50.183Z,95164.91
2022-12-31T11:53:57.816Z,95141.41
2022-12-31T11:56:28.695Z,95161.94
2022-12-31T11:58:57.673Z,95142.56
2022-12-31T12:01:36.382Z,95116.34
2022-12-31T12:04:03.594Z,95135.72
2022-12-31T12:06:33.018Z,95143.22
2022-12-31T12:09:04.479Z,95119.97
2022-12-31T12:11:35.407Z,95105.78
2022-12-31T12:14:31.911Z,95115.63
2022-12-31T12:17:04.868Z,95115.16
2022-12-31T12:19:34.737Z,95105.28
2022-12-31T12:22:13.024Z,95096.41
2022-12-31T12:24:39.775Z,95088.38
2022-12-31T12:27:21.563Z,95071.31
2022-12-31T12:29:48.835Z,95078.75
2022-12-31T12:32:21.595Z,95057.84
2022-12-31T12:34:50.043Z,95077.25
2022-12-31T12:37:33.233Z,95051.53
2022-12-31T12:40:09.476Z,95061.88
2022-12-31T12:42:36.735Z,95058.53
2022-12-31T12:45:29.195Z,95033.75
2022-12-31T12:47:59.785Z,95041.88
2022-12-31T12:50:38.598Z,95053.34
2022-12-31T12:53:05.634Z,95079.59
2022-12-31T12:56:17.569Z,95074.28
2022-12-31T12:59:02.796Z,95039.13
2022-12-31T13:01:53.038Z,95065.91
2022-12-31T13:04:35.774Z,95059.72
2022-12-31T13:07:18.832Z,95012.44
2022-12-31T13:09:57.012Z,95007.94
2022-12-31T13:13:05.141Z,95006.53
2022-12-31T13:15:31.980Z,95004.44
2022-12-31T13:18:14.629Z,95025.78
2022-12-31T13:20:57.215Z,95005.69
2022-12-31T13:23:39.476Z,95011.88
2022-12-31T13:26:22.265Z,95019.78
2022-12-31T13:28:52.253Z,94991.53
2022-12-31T13:31:30.277Z,94986.09
2022-12-31T13:34:04.436Z,94982.22
2022-12-31T13:36:35.973Z,94975.97
2022-12-31T13:39:08.039Z,94973.78
2022-12-31T13:41:41.859Z,94968.34
2022-12-31T13:44:08.489Z,94959.50
2022-12-31T13:47:00.819Z,94976.53
2022-12-31T13:49:39.822Z,94962.53
2022-12-31T13:52:27.648Z,94946.19
2022-12-31T13:55:08.241Z,94950.09
2022-12-31T13:58:08.135Z,94950.16
2022-12-31T14:00:47.974Z,94963.84
2022-12-31T14:03:40.338Z,94998.31
2022-12-31T14:06:14.877Z,95012.72
2022-12-31T14:08:41.612Z,94980.50
2022-12-31T14:11:23.545Z,94985.59
2022-12-31T14:14:12.478Z,95012.53
2022-12-31T14:16:52.809Z,94960.69
2022-12-31T14:19:55.364Z,94967.88
2022-12-31T14:22:43.045Z,94947.41
2022-12-31T14:25:36.650Z,94972.25
2022-12-31T14:28:06.831Z,94967.84
2022-12-31T14:30:39.168Z,94951.00
2022-12-31T14:33:08.855Z,94954.47
2022-12-31T14:35:45.478Z,94955.13
2022-12-31T14:38:19.900Z,94954.53
2022-12-31T14:41:23.809Z,94942.28
2022-12-31T14:44:02.664Z,94940.94
2022-12-31T14:47:15.435Z,94991.50
2022-12-31T14:50:00.479Z,94982.41
2022-12-31T14:52:35.771Z,94997.81
2022-12-31T14:55:17.362Z,94970.13
2022-12-31T15:00:33.188Z,94983.03
2022-12-31T15:03:33.539Z,94931.34
2022-12-31T15:06:23.905Z,94956.06
2022-12-31T15:09:08.523Z,94991.44
2022-12-31T15:11:46.157Z,94931.72
2022-12-31T15:14:44.031Z,94931.13
2022-12-31T15:17:22.994Z,94989.75
2022-12-31T15:20:16.862Z,94969.47
2022-12-31T15:22:53.225Z,94991.06
2022-12-31T15:25:26.743Z,94955.66
2022-12-31T15:27:54.478Z,94941.38
2022-12-31T15:30:56.543Z,94986.06
2022-12-31T15:33:35.295Z,94973.00
2022-12-31T15:36:35.900Z,95028.38
2022-12-31T15:39:11.689Z,95029.41
2022-12-31T15:42:36.244Z,95041.69
2022-12-31T15:44:55.407Z,95032.75
2022-12-31T15:47:37.292Z,95022.28
2022-12-31T15:50:08.360Z,95046.19
2022-12-31T15:52:38.415Z,95004.38
2022-12-31T15:55:06.847Z,95026.47
2022-12-31T15:57:38.437Z,94998.88
2022-12-31T16:00:19.655Z,94971.19
2022-12-31T16:02:48.377Z,94997.09
2022-12-31T16:05:24.606Z,94966.31
2022-12-31T16:07:56.520Z,94999.22
2022-12-31T16:10:33.169Z,94989.28
2022-12-31T16:13:00.126Z,94975.19
2022-12-31T16:15:30.303Z,95003.91
2022-12-31T16:18:03.269Z,95037.94
2022-12-31T16:20:32.797Z,95081.44
2022-12-31T16:23:03.033Z,95019.09
2022-12-31T16:25:33.043Z,95046.47
2022-12-31T16:28:02.764Z,95055.47
2022-12-31T16:30:36.415Z,95062.34
2022-12-31T16:33:06.401Z,95030.59
2022-12-31T16:35:39.006Z,95030.66
2022-12-31T16:38:18.505Z,95025.47
2022-12-31T16:41:16.882Z,95030.88
2022-12-31T16:43:44.003Z,95021.88
2022-12-31T16:46:31.869Z,94988.50
2022-12-31T16:49:04.499Z,95021.00
2022-12-31T16:51:36.905Z,94993.16
2022-12-31T16:54:04.786Z,95041.59
2022-12-31T16:56:36.912Z,94983.59
2022-12-31T16:59:12.171Z,94964.72
2022-12-31T17:01:40.310Z,94983.97
2022-12-31T17:04:12.461Z,95038.53
2022-12-31T17:06:39.422Z,95078.75
2022-12-31T17:09:32.151Z,95032.72
2022-12-31T17:12:16.764Z,95032.44
2022-12-31T17:14:51.224Z,95044.03
2022-12-31T17:17:27.555Z,95044.66
2022-12-31T17:20:00.913Z,94981.31
2022-12-31T17:22:35.842Z,94978.34
2022-12-31T17:25:28.404Z,95056.22
2022-12-31T17:28:00.932Z,95051.53
2022-12-31T17:30:27.624Z,95049.44
2022-12-31T17:33:07.907Z,95005.47
2022-12-31T17:35:37.098Z,94971.69
2022-12-31T17:38:22.316Z,94947.00
2022-12-31T17:40:53.185Z,95006.19
2022-12-31T17:43:22.275Z,95037.47
2022-12-31T17:45:54.907Z,95017.16
2022-12-31T17:48:24.493Z,94982.47
2022-12-31T17:50:58.302Z,94982.91
2022-12-31T17:53:25.716Z,94975.16
2022-12-31T17:55:55.834Z,95018.91
2022-12-31T17:58:32.562Z,95022.75
2022-12-31T18:01:01.945Z,95000.69
2022-12-31T18:03:28.818Z,95035.78
2022-12-31T18:05:55.941Z,95059.50
2022-12-31T18:08:23.186Z,95013.13
2022-12-31T18:10:52.344Z,95013.56
2022-12-31T18:13:25.954Z,95034.03
2022-12-31T18:15:54.244Z,95034.03
2022-12-31T18:18:27.757Z,95057.38
2022-12-31T18:20:58.707Z,95030.72
2022-12-31T18:23:26.684Z,95030.81
2022-12-31T18:25:54.409Z,95070.63
2022-12-31T18:28:21.779Z,95057.75
2022-12-31T18:30:48.969Z,95032.44
2022-12-31T18:33:22.438Z,95009.78
2022-12-31T18:36:10.273Z,95018.00
2022-12-31T18:38:37.677Z,95020.22
2022-12-31T18:41:05.711Z,95049.75
2022-12-31T18:43:33.228Z,95050.63
2022-12-31T18:45:59.985Z,95037.31
2022-12-31T18:48:26.785Z,95058.75
2022-12-31T18:50:53.698Z,95017.09
2022-12-31T18:53:23.632Z,95048.16
2022-12-31T18:55:51.643Z,95051.75
2022-12-31T18:58:18.459Z,95048.72
2022-12-31T19:00:45.772Z,95050.38
2022-12-31T19:03:19.794Z,95057.13
2022-12-31T19:05:51.171Z,95047.13
2022-12-31T19:08:20.971Z,95020.91
2022-12-31T19:10:50.621Z,95048.34
2022-12-31T19:13:19.896Z,95059.63
2022-12-31T19:15:51.313Z,95050.28
2022-12-31T19:18:19.793Z,95052.63
2022-12-31T19:20:47.774Z,95077.09
2022-12-31T19:23:22.403Z,95051.72
2022-12-31T19:25:49.618Z,94999.66
2022-12-31T19:28:22.512Z,95002.19
2022-12-31T19:30:49.672Z,95029.06
2022-12-31T19:33:23.851Z,95071.28
2022-12-31T19:35:50.926Z,95039.03
2022-12-31T19:38:21.898Z,95042.97
2022-12-31T19:40:50.531Z,95065.06
2022-12-31T19:43:20.155Z,95019.34
2022-12-31T19:45:48.748Z,95050.91
2022-12-31T19:48:24.677Z,95043.09
2022-12-31T19:50:56.939Z,95061.97
2022-12-31T19:53:26.533Z,95064.28
2022-12-31T19:55:54.144Z,95083.03
2022-12-31T19:58:25.516Z,95058.84
2022-12-31T20:01:01.201Z,95042.78
2022-12-31T20:03:29.376Z,95067.75
2022-12-31T20:06:09.214Z,95097.38
2022-12-31T20:08:37.627Z,95104.16
2022-12-31T20:11:17.871Z,95124.66
2022-12-31T20:13:46.576Z,95062.88
2022-12-31T20:16:17.948Z,95138.19
2022-12-31T20:18:46.262Z,95110.78
2022-12-31T20:21:17.937Z,95107.34
2022-12-31T20:23:44.791Z,95139.75
2022-12-31T20:26:12.538Z,95131.63
2022-12-31T20:28:39.614Z,95155.06
2022-12-31T20:31:12.240Z,95148.03
2022-12-31T20:33:39.594Z,95185.03
2022-12-31T20:36:08.458Z,95196.41
2022-12-31T20:38:35.306Z,95179.84
2022-12-31T20:41:07.096Z,95187.31
2022-12-31T20:43:35.448Z,95200.84
2022-12-31T20:46:19.117Z,95185.47
2022-12-31T20:48:48.003Z,95166.16
2022-12-31T20:51:16.832Z,95146.47
2022-12-31T20:53:59.148Z,95203.25
2022-12-31T20:56:29.083Z,95187.31
2022-12-31T20:58:56.586Z,95196.78
2022-12-31T21:01:25.690Z,95175.63
2022-12-31T21:04:10.406Z,95207.09
2022-12-31T21:06:37.576Z,95196.38
2022-12-31T21:09:07.643Z,95195.81
2022-12-31T21:11:54.548Z,95168.66
2022-12-31T21:14:21.711Z,95180.69
2022-12-31T21:16:49.470Z,95172.16
2022-12-31T21:19:16.162Z,95192.34
2022-12-31T21:21:43.499Z,95192.66
2022-12-31T21:24:10.914Z,95206.03
2022-12-31T21:26:37.699Z,95170.91
2022-12-31T21:29:05.063Z,95165.66
2022-12-31T21:31:31.893Z,95177.34
2022-12-31T21:33:58.700Z,95117.31
2022-12-31T21:36:25.935Z,95157.41
2022-12-31T21:38:53.107Z,95151.94
2022-12-31T21:41:38.499Z,95135.56
2022-12-31T21:44:05.346Z,95141.22
2022-12-31T21:46:32.133Z,95167.06
2022-12-31T21:49:00.764Z,95167.50
2022-12-31T21:51:28.589Z,95184.00
2022-12-31T21:53:55.504Z,95155.16
2022-12-31T21:56:23.272Z,95182.34
2022-12-31T21:59:17.229Z,95197.09
2022-12-31T22:02:03.694Z,95164.34
2022-12-31T22:07:17.757Z,95158.19
2022-12-31T22:09:45.406Z,95172.13
2022-12-31T22:12:12.662Z,95172.97
2022-12-31T22:14:39.561Z,95173.66
2022-12-31T22:17:26.757Z,95134.47
2022-12-31T22:20:25.415Z,95128.63
2022-12-31T22:22:41.475Z,95166.34
2022-12-31T22:25:08.815Z,95113.59
2022-12-31T22:27:35.587Z,95124.06
2022-12-31T22:30:02.402Z,95141.81
2022-12-31T22:32:29.079Z,95139.03
2022-12-31T22:34:55.818Z,95160.78
2022-12-31T22:37:54.892Z,95134.97
2022-12-31T22:40:10.309Z,95144.88
2022-12-31T22:42:37.418Z,95145.34
2022-12-31T22:45:05.955Z,95138.38
2022-12-31T22:47:32.822Z,95134.59
2022-12-31T22:49:59.591Z,95160.41
2022-12-31T22:52:26.771Z,95108.69
2022-12-31T22:54:53.614Z,95131.94
2022-12-31T22:57:20.601Z,95116.31
2022-12-31T22:59:47.346Z,95107.34
2022-12-31T23:02:14.287Z,95101.16
2022-12-31T23:04:41.038Z,95153.19
2022-12-31T23:07:07.839Z,95126.94
2022-12-31T23:09:53.312Z,95147.22
2022-12-31T23:12:21.200Z,95138.53
2022-12-31T23:15:06.450Z,95150.19
2022-12-31T23:17:51.808Z,95177.81
2022-12-31T23:20:40.853Z,95187.59
2022-12-31T23:23:12.457Z,95196.25
2022-12-31T23:25:49.678Z,95198.81
2022-12-31T23:28:24.992Z,95210.72
2022-12-31T23:30:52.653Z,95183.72
2022-12-31T23:33:26.031Z,95185.06
2022-12-31T23:36:06.292Z,95179.44
2022-12-31T23:38:33.090Z,95186.28
2022-12-31T23:40:59.774Z,95214.81
2022-12-31T23:43:26.845Z,95229.50
2022-12-31T23:45:53.720Z,95219.34
2022-12-31T23:48:21.204Z,95195.84
2022-12-31T23:50:54.501Z,95180.28
2022-12-31T23:53:25.122Z,95184.88
2022-12-31T23:55:52.943Z,95172.84
2022-12-31T23:58:21.257Z,95182.72
